createdAt,value
2018-05-14T00:00:44.358Z,99.99
2018-05-14T00:01:44.359Z,99.99
2018-05-14T00:02:44.357Z,99.99
2018-05-14T00:03:44.404Z,99.99
2018-05-14T00:04:44.350Z,99.99
2018-05-14T00:05:44.342Z,99.99
2018-05-14T00:06:44.339Z,99.99
2018-05-14T00:07:44.336Z,99.99
2018-05-14T00:08:44.333Z,99.99
2018-05-14T00:09:44.336Z,99.99
2018-05-14T00:10:44.331Z,99.99
2018-05-14T00:11:44.329Z,99.99
2018-05-14T00:12:44.363Z,99.99
2018-05-14T00:13:44.318Z,99.99
2018-05-14T00:14:44.313Z,99.99
2018-05-14T00:15:44.316Z,99.99
2018-05-14T00:16:44.315Z,99.99
2018-05-14T00:17:44.305Z,99.99
2018-05-14T00:18:44.305Z,99.99
2018-05-14T00:19:44.298Z,99.99
2018-05-14T00:20:44.296Z,99.99
2018-05-14T00:21:44.298Z,99.99
2018-05-14T00:22:44.295Z,99.99
2018-05-14T00:23:44.291Z,99.99
2018-05-14T00:24:44.288Z,99.99
2018-05-14T00:25:44.285Z,99.99
2018-05-14T00:26:44.278Z,99.99
2018-05-14T00:27:44.275Z,99.99
2018-05-14T00:28:44.272Z,99.99
2018-05-14T00:29:44.276Z,99.99
2018-05-14T00:30:44.271Z,99.99
2018-05-14T00:31:44.263Z,99.99
2018-05-14T00:32:44.260Z,99.99
2018-05-14T00:33:44.262Z,99.99
2018-05-14T00:34:44.259Z,99.99
2018-05-14T00:35:44.256Z,99.99
2018-05-14T00:36:44.251Z,99.99
2018-05-14T00:37:44.245Z,99.99
2018-05-14T00:38:44.241Z,99.99
2018-05-14T00:39:44.239Z,99.99
2018-05-14T00:40:44.236Z,99.99
2018-05-14T00:41:44.237Z,99.99
2018-05-14T00:42:44.233Z,99.99
2018-05-14T00:43:44.233Z,99.99
2018-05-14T00:44:44.229Z,99.99
2018-05-14T00:45:44.222Z,99.99
2018-05-14T00:46:44.218Z,99.99
2018-05-14T00:47:44.219Z,99.99
2018-05-14T00:48:44.216Z,99.99
2018-05-14T00:49:44.211Z,99.99
2018-05-14T00:50:44.206Z,99.99
2018-05-14T00:51:44.207Z,99.99
2018-05-14T00:52:44.200Z,99.99
2018-05-14T00:53:44.202Z,99.99
2018-05-14T00:54:44.198Z,99.99
2018-05-14T00:55:44.197Z,99.99
2018-05-14T00:56:44.192Z,99.99
2018-05-14T00:57:44.187Z,99.99
2018-05-14T00:58:44.186Z,99.99
2018-05-14T00:59:44.181Z,99.99
2018-05-14T01:00:44.176Z,99.99
2018-05-14T01:01:44.178Z,99.99
2018-05-14T01:02:44.177Z,99.99
2018-05-14T01:03:44.167Z,99.99
2018-05-14T01:04:44.164Z,99.99
2018-05-14T01:05:44.166Z,99.99
2018-05-14T01:06:44.163Z,99.99
2018-05-14T01:07:44.160Z,99.99
2018-05-14T01:08:44.157Z,99.99
2018-05-14T01:09:44.150Z,99.99
2018-05-14T01:10:44.146Z,99.99
2018-05-14T01:11:44.143Z,99.99
2018-05-14T01:12:44.141Z,99.99
2018-05-14T01:13:44.142Z,99.99
2018-05-14T01:14:44.139Z,99.99
2018-05-14T01:15:44.141Z,99.99
2018-05-14T01:16:44.135Z,99.99
2018-05-14T01:17:44.131Z,99.99
2018-05-14T01:18:44.122Z,99.99
2018-05-14T01:19:44.127Z,99.99
2018-05-14T01:20:44.123Z,99.99
2018-05-14T01:21:44.115Z,99.99
2018-05-14T01:22:44.111Z,99.99
2018-05-14T01:23:44.108Z,99.99
2018-05-14T01:24:44.105Z,99.99
2018-05-14T01:25:44.110Z,99.99
2018-05-14T01:26:44.105Z,99.99
2018-05-14T01:27:44.103Z,99.99
2018-05-14T01:28:44.098Z,99.99
2018-05-14T01:29:44.090Z,99.99
2018-05-14T01:30:44.086Z,99.99
2018-05-14T01:31:44.083Z,99.99
2018-05-14T01:32:44.081Z,99.99
2018-05-14T01:33:44.088Z,99.99
2018-05-14T01:34:44.079Z,99.99
2018-05-14T01:35:44.072Z,99.99
2018-05-14T01:36:44.069Z,99.99
2018-05-14T01:37:44.071Z,99.99
2018-05-14T01:38:44.067Z,99.99
2018-05-14T01:39:44.064Z,99.99
2018-05-14T01:40:44.062Z,99.99
2018-05-14T01:41:44.055Z,99.99
2018-05-14T01:42:44.051Z,99.99
2018-05-14T01:43:44.048Z,99.99
2018-05-14T01:44:44.045Z,99.99
2018-05-14T01:45:44.047Z,99.99
2018-05-14T01:46:44.044Z,99.99
2018-05-14T01:47:44.040Z,99.99
2018-05-14T01:48:44.037Z,99.99
2018-05-14T01:49:44.029Z,99.99
2018-05-14T01:50:44.026Z,99.99
2018-05-14T01:51:44.027Z,99.99
2018-05-14T01:52:44.025Z,99.99
2018-05-14T01:53:44.022Z,99.99
2018-05-14T01:54:44.013Z,99.99
2018-05-14T01:55:44.012Z,99.99
2018-05-14T01:56:44.008Z,99.99
2018-05-14T01:57:44.011Z,99.99
2018-05-14T01:58:44.006Z,99.99
2018-05-14T01:59:44.003Z,99.99
2018-05-14T02:00:44.001Z,99.99
2018-05-14T02:01:43.992Z,99.99
2018-05-14T02:02:43.989Z,99.99
2018-05-14T02:03:44.000Z,99.99
2018-05-14T02:04:43.983Z,99.99
2018-05-14T02:05:43.986Z,99.99
2018-05-14T02:06:44.042Z,99.99
2018-05-14T02:07:43.975Z,99.99
2018-05-14T02:08:43.972Z,99.99
2018-05-14T02:09:43.972Z,99.99
2018-05-14T02:10:43.968Z,99.99
2018-05-14T02:11:43.966Z,99.99
2018-05-14T02:12:43.964Z,99.99
2018-05-14T02:13:43.956Z,99.99
2018-05-14T02:14:43.953Z,99.99
2018-05-14T02:15:43.950Z,99.99
2018-05-14T02:16:43.946Z,99.99
2018-05-14T02:17:43.949Z,99.99
2018-05-14T02:18:43.949Z,99.99
2018-05-14T02:19:43.941Z,99.99
2018-05-14T02:20:43.939Z,99.99
2018-05-14T02:21:43.933Z,99.99
2018-05-14T02:22:43.926Z,99.99
2018-05-14T02:23:43.928Z,99.99
2018-05-14T02:24:43.926Z,99.99
2018-05-14T02:25:43.920Z,99.99
2018-05-14T02:26:43.914Z,99.99
2018-05-14T02:27:43.912Z,99.99
2018-05-14T02:28:43.913Z,99.99
2018-05-14T02:29:43.911Z,99.99
2018-05-14T02:30:43.909Z,99.99
2018-05-14T02:31:43.904Z,99.99
2018-05-14T02:32:43.901Z,99.99
2018-05-14T02:33:43.893Z,99.99
2018-05-14T02:34:43.955Z,99.99
2018-05-14T02:35:43.890Z,99.99
2018-05-14T02:36:43.883Z,99.99
2018-05-14T02:37:43.887Z,99.99
2018-05-14T02:38:43.882Z,99.99
2018-05-14T02:39:43.875Z,99.99
2018-05-14T02:40:43.873Z,99.99
2018-05-14T02:41:43.881Z,99.99
2018-05-14T02:42:43.870Z,99.99
2018-05-14T02:43:43.867Z,99.99
2018-05-14T02:44:43.867Z,99.99
2018-05-14T02:45:43.856Z,99.99
2018-05-14T02:46:43.853Z,99.99
2018-05-14T02:47:43.851Z,99.99
2018-05-14T02:48:43.847Z,99.99
2018-05-14T02:49:43.849Z,99.99
2018-05-14T02:50:43.844Z,99.99
2018-05-14T02:51:43.844Z,99.99
2018-05-14T02:52:43.844Z,99.99
2018-05-14T02:53:43.832Z,99.99
2018-05-14T02:54:43.828Z,99.99
2018-05-14T02:55:43.831Z,99.99
2018-05-14T02:56:43.828Z,99.99
2018-05-14T02:57:43.821Z,99.99
2018-05-14T02:58:43.816Z,99.99
2018-05-14T02:59:43.814Z,99.99
2018-05-14T03:00:43.810Z,99.99
2018-05-14T03:01:43.811Z,99.99
2018-05-14T03:02:43.809Z,99.99
2018-05-14T03:03:43.805Z,99.99
2018-05-14T03:04:43.803Z,99.99
2018-05-14T03:05:43.800Z,99.99
2018-05-14T03:06:43.793Z,99.99
2018-05-14T03:07:43.789Z,99.99
2018-05-14T03:08:43.787Z,99.99
2018-05-14T03:09:43.790Z,99.99
2018-05-14T03:10:43.785Z,99.99
2018-05-14T03:11:43.778Z,99.99
2018-05-14T03:12:43.774Z,99.99
2018-05-14T03:13:43.777Z,99.99
2018-05-14T03:14:43.779Z,99.99
2018-05-14T03:15:43.769Z,99.99
2018-05-14T03:16:43.769Z,99.99
2018-05-14T03:17:43.760Z,99.99
2018-05-14T03:18:43.756Z,99.99
2018-05-14T03:19:43.753Z,99.99
2018-05-14T03:20:43.750Z,99.99
2018-05-14T03:21:43.752Z,99.99
2018-05-14T03:22:43.748Z,99.99
2018-05-14T03:23:43.747Z,99.99
2018-05-14T03:24:43.744Z,99.99
2018-05-14T03:25:43.736Z,99.99
2018-05-14T03:26:43.732Z,99.99
2018-05-14T03:27:43.735Z,99.99
2018-05-14T03:28:43.732Z,99.99
2018-05-14T03:29:43.724Z,99.99
2018-05-14T03:30:43.721Z,99.99
2018-05-14T03:31:43.725Z,99.99
2018-05-14T03:32:43.714Z,99.99
2018-05-14T03:33:43.715Z,99.99
2018-05-14T03:34:43.712Z,99.99
2018-05-14T03:35:43.710Z,99.99
2018-05-14T03:36:43.708Z,99.99
2018-05-14T03:37:43.700Z,99.99
2018-05-14T03:38:43.697Z,99.99
2018-05-14T03:39:43.693Z,99.99
2018-05-14T03:40:43.690Z,99.99
2018-05-14T03:41:43.693Z,99.99
2018-05-14T03:42:43.691Z,99.99
2018-05-14T03:43:43.681Z,99.99
2018-05-14T03:44:43.678Z,99.99
2018-05-14T03:45:43.680Z,99.99
2018-05-14T03:46:43.729Z,99.99
2018-05-14T03:47:43.674Z,99.99
2018-05-14T03:48:43.671Z,99.99
2018-05-14T03:49:43.664Z,99.99
2018-05-14T03:50:43.659Z,99.99
2018-05-14T03:51:43.656Z,99.99
2018-05-14T03:52:43.653Z,99.99
2018-05-14T03:53:43.657Z,99.99
2018-05-14T03:54:43.652Z,99.99
2018-05-14T03:55:43.648Z,99.99
2018-05-14T03:56:43.646Z,99.99
2018-05-14T03:57:43.639Z,99.99
2018-05-14T03:58:43.639Z,99.99
2018-05-14T03:59:43.637Z,99.99
2018-05-14T04:00:43.634Z,99.99
2018-05-14T04:01:43.627Z,99.99
2018-05-14T04:02:43.623Z,99.99
2018-05-14T04:03:43.620Z,99.99
2018-05-14T04:04:43.619Z,99.99
2018-05-14T04:05:43.619Z,99.99
2018-05-14T04:06:43.616Z,99.99
2018-05-14T04:07:43.614Z,99.99
2018-05-14T04:08:43.611Z,99.99
2018-05-14T04:09:43.602Z,99.99
2018-05-14T04:10:43.609Z,99.99
2018-05-14T04:11:43.595Z,99.99
2018-05-14T04:12:43.592Z,99.99
2018-05-14T04:13:43.599Z,99.99
2018-05-14T04:14:43.590Z,99.99
2018-05-14T04:15:43.583Z,99.99
2018-05-14T04:16:43.580Z,99.99
2018-05-14T04:17:43.582Z,99.99
2018-05-14T04:18:43.579Z,99.99
2018-05-14T04:19:43.577Z,99.99
2018-05-14T04:20:43.572Z,99.99
2018-05-14T04:21:43.565Z,99.99
2018-05-14T04:22:43.561Z,99.99
2018-05-14T04:23:43.558Z,99.99
2018-05-14T04:24:43.557Z,99.99
2018-05-14T04:25:43.558Z,99.99
2018-05-14T04:26:43.554Z,99.99
2018-05-14T04:27:43.552Z,99.99
2018-05-14T04:28:43.547Z,99.99
2018-05-14T04:29:43.539Z,99.99
2018-05-14T04:30:43.536Z,99.99
2018-05-14T04:31:43.537Z,99.99
2018-05-14T04:32:43.535Z,99.99
2018-05-14T04:33:43.526Z,99.99
2018-05-14T04:34:43.524Z,99.99
2018-05-14T04:35:43.521Z,99.99
2018-05-14T04:36:43.518Z,99.99
2018-05-14T04:37:43.520Z,99.99
2018-05-14T04:38:43.523Z,99.99
2018-05-14T04:39:43.509Z,99.99
2018-05-14T04:40:43.506Z,99.99
2018-05-14T04:41:43.507Z,99.99
2018-05-14T04:42:43.504Z,99.99
2018-05-14T04:43:43.500Z,99.99
2018-05-14T04:44:43.497Z,99.99
2018-05-14T04:45:43.490Z,99.99
2018-05-14T04:46:43.486Z,99.99
2018-05-14T04:47:43.488Z,99.99
2018-05-14T04:48:43.485Z,99.99
2018-05-14T04:49:43.480Z,99.99
2018-05-14T04:50:43.474Z,99.99
2018-05-14T04:51:43.475Z,99.99
2018-05-14T04:52:43.468Z,99.99
2018-05-14T04:53:43.470Z,99.99
2018-05-14T04:54:43.467Z,99.99
2018-05-14T04:55:43.464Z,99.99
2018-05-14T04:56:43.459Z,99.99
2018-05-14T04:57:43.453Z,99.99
2018-05-14T04:58:43.449Z,99.99
2018-05-14T04:59:43.447Z,99.99
2018-05-14T05:00:43.444Z,99.99
2018-05-14T05:01:43.445Z,99.99
2018-05-14T05:02:43.441Z,99.99
2018-05-14T05:03:43.434Z,99.99
2018-05-14T05:04:43.431Z,99.99
2018-05-14T05:05:43.434Z,99.99
2018-05-14T05:06:43.430Z,99.99
2018-05-14T05:07:43.426Z,99.99
2018-05-14T05:08:43.423Z,99.99
2018-05-14T05:09:43.416Z,99.99
2018-05-14T05:10:43.415Z,99.99
2018-05-14T05:11:43.411Z,99.99
2018-05-14T05:12:43.407Z,99.99
2018-05-14T05:13:43.408Z,99.99
2018-05-14T05:14:43.408Z,99.99
2018-05-14T05:15:43.403Z,99.99
2018-05-14T05:16:43.401Z,99.99
2018-05-14T05:17:43.393Z,99.99
2018-05-14T05:18:43.389Z,99.99
2018-05-14T05:19:43.392Z,99.99
2018-05-14T05:20:43.388Z,99.99
2018-05-14T05:21:43.382Z,99.99
2018-05-14T05:22:43.412Z,99.99
2018-05-14T05:23:43.375Z,99.99
2018-05-14T05:24:43.372Z,99.99
2018-05-14T05:25:43.374Z,99.99
2018-05-14T05:26:43.371Z,99.99
2018-05-14T05:27:43.368Z,99.99
2018-05-14T05:28:43.367Z,99.99
2018-05-14T05:29:43.359Z,99.99
2018-05-14T05:30:43.355Z,99.99
2018-05-14T05:31:43.354Z,99.99
2018-05-14T05:32:43.351Z,99.99
2018-05-14T05:33:43.353Z,99.99
2018-05-14T05:34:43.351Z,99.99
2018-05-14T05:35:43.343Z,99.99
2018-05-14T05:36:43.341Z,99.99
2018-05-14T05:37:43.409Z,99.99
2018-05-14T05:38:43.339Z,99.99
2018-05-14T05:39:43.337Z,99.99
2018-05-14T05:40:43.334Z,99.99
2018-05-14T05:41:43.327Z,99.99
2018-05-14T05:42:43.323Z,99.99
2018-05-14T05:43:43.326Z,99.99
2018-05-14T05:44:43.319Z,99.99
2018-05-14T05:45:43.322Z,99.99
2018-05-14T05:46:43.326Z,99.99
2018-05-14T05:47:43.316Z,99.99
2018-05-14T05:48:43.313Z,99.99
2018-05-14T05:49:43.306Z,99.99
2018-05-14T05:50:43.305Z,99.99
2018-05-14T05:51:43.305Z,99.99
2018-05-14T05:52:43.303Z,99.99
2018-05-14T05:53:43.296Z,99.99
2018-05-14T05:54:43.294Z,99.99
2018-05-14T05:55:43.292Z,99.99
2018-05-14T05:56:43.289Z,99.99
2018-05-14T05:57:43.291Z,99.99
2018-05-14T05:58:43.289Z,99.99
2018-05-14T05:59:43.287Z,99.99
2018-05-14T06:00:43.285Z,99.99
2018-05-14T06:01:43.278Z,99.99
2018-05-14T06:02:43.274Z,99.99
2018-05-14T06:03:43.274Z,99.99
2018-05-14T06:04:43.274Z,99.99
2018-05-14T06:05:43.273Z,99.99
2018-05-14T06:06:43.270Z,99.99
2018-05-14T06:07:43.263Z,99.99
2018-05-14T06:08:43.260Z,99.99
2018-05-14T06:09:43.263Z,99.99
2018-05-14T06:10:43.260Z,99.99
2018-05-14T06:11:43.258Z,99.99
2018-05-14T06:12:43.256Z,99.99
2018-05-14T06:13:43.251Z,99.99
2018-05-14T06:14:43.247Z,99.99
2018-05-14T06:15:43.244Z,99.99
2018-05-14T06:16:43.243Z,99.99
2018-05-14T06:17:43.245Z,99.99
2018-05-14T06:18:43.243Z,99.99
2018-05-14T06:19:43.239Z,99.99
2018-05-14T06:20:43.237Z,99.99
2018-05-14T06:21:43.231Z,99.99
2018-05-14T06:22:43.229Z,99.99
2018-05-14T06:23:43.230Z,99.99
2018-05-14T06:24:43.229Z,99.99
2018-05-14T06:25:43.224Z,99.99
2018-05-14T06:26:43.221Z,99.99
2018-05-14T06:27:43.263Z,99.99
2018-05-14T06:28:43.215Z,99.99
2018-05-14T06:29:43.224Z,99.99
2018-05-14T06:30:43.215Z,99.99
2018-05-14T06:31:43.219Z,99.99
2018-05-14T06:32:43.218Z,99.99
2018-05-14T06:33:43.206Z,99.99
2018-05-14T06:34:43.203Z,99.99
2018-05-14T06:35:43.232Z,99.99
2018-05-14T06:36:43.201Z,99.99
2018-05-14T06:37:43.203Z,99.99
2018-05-14T06:38:43.200Z,99.99
2018-05-14T06:39:43.197Z,99.99
2018-05-14T06:40:43.193Z,99.99
2018-05-14T06:41:43.195Z,99.99
2018-05-14T06:42:43.192Z,99.99
2018-05-14T06:43:43.192Z,99.99
2018-05-14T06:44:43.190Z,99.99
2018-05-14T06:45:43.185Z,99.99
2018-05-14T06:46:43.182Z,99.99
2018-05-14T06:47:43.180Z,99.99
2018-05-14T06:48:43.178Z,99.99
2018-05-14T06:49:43.211Z,99.99
2018-05-14T06:50:43.179Z,99.99
2018-05-14T06:51:43.177Z,99.99
2018-05-14T06:52:43.177Z,99.99
2018-05-14T06:53:43.170Z,99.99
2018-05-14T06:54:43.171Z,99.99
2018-05-14T06:55:43.172Z,99.99
2018-05-14T06:56:43.169Z,99.99
2018-05-14T06:57:43.163Z,99.99
2018-05-14T06:58:43.161Z,99.99
2018-05-14T06:59:43.160Z,99.99
2018-05-14T07:00:43.160Z,99.99
2018-05-14T07:01:43.321Z,99.99
2018-05-14T07:02:43.161Z,99.99
2018-05-14T07:03:43.158Z,99.99
2018-05-14T07:04:43.158Z,99.99
2018-05-14T07:05:43.152Z,99.99
2018-05-14T07:06:43.149Z,99.99
2018-05-14T07:07:43.149Z,99.99
2018-05-14T07:08:43.148Z,99.99
2018-05-14T07:09:43.151Z,99.99
2018-05-14T07:10:43.152Z,99.99
2018-05-14T07:11:43.143Z,99.99
2018-05-14T07:12:43.143Z,99.99
2018-05-14T07:13:43.146Z,99.99
2018-05-14T07:14:43.144Z,99.99
2018-05-14T07:15:43.143Z,99.99
2018-05-14T07:16:43.142Z,99.99
2018-05-14T07:17:43.138Z,99.99
2018-05-14T07:18:43.135Z,99.99
2018-05-14T07:19:43.135Z,99.99
2018-05-14T07:20:43.133Z,99.99
2018-05-14T07:21:43.138Z,99.99
2018-05-14T07:22:43.137Z,99.99
2018-05-14T07:23:43.136Z,99.99
2018-05-14T07:24:43.222Z,99.99
2018-05-14T07:25:43.130Z,99.99
2018-05-14T07:26:43.127Z,99.99
2018-05-14T07:27:43.132Z,99.99
2018-05-14T07:28:43.131Z,99.99
2018-05-14T07:29:43.126Z,99.99
2018-05-14T07:30:43.125Z,99.99
2018-05-14T07:31:43.124Z,97.57
2018-05-14T07:32:43.124Z,94.06
2018-05-14T07:33:43.130Z,92.32
2018-05-14T07:34:43.128Z,90.14
2018-05-14T07:35:43.128Z,88.21
2018-05-14T07:36:43.137Z,87.97
2018-05-14T07:37:43.127Z,87.79
2018-05-14T07:38:43.127Z,88.46
2018-05-14T07:39:43.128Z,89.48
2018-05-14T07:40:43.130Z,91.02
2018-05-14T07:41:43.136Z,91.41
2018-05-14T07:42:43.139Z,91.69
2018-05-14T07:43:43.136Z,91.31
2018-05-14T07:44:43.136Z,91.45
2018-05-14T07:45:43.144Z,90.92
2018-05-14T07:46:43.144Z,88.64
2018-05-14T07:47:43.146Z,86.90
2018-05-14T07:48:43.148Z,86.61
2018-05-14T07:49:43.146Z,85.55
2018-05-14T07:50:43.150Z,85.26
2018-05-14T07:51:43.151Z,85.16
2018-05-14T07:52:43.154Z,84.97
2018-05-14T07:53:43.161Z,84.58
2018-05-14T07:54:43.165Z,84.93
2018-05-14T07:55:43.166Z,84.83
2018-05-14T07:56:43.169Z,84.93
2018-05-14T07:57:43.169Z,85.66
2018-05-14T07:58:43.172Z,85.66
2018-05-14T07:59:43.179Z,85.85
2018-05-14T08:00:43.181Z,85.66
2018-05-14T08:01:43.258Z,85.61
2018-05-14T08:02:43.184Z,86.10
2018-05-14T08:03:43.186Z,85.91
2018-05-14T08:04:43.189Z,85.42
2018-05-14T08:05:43.408Z,85.03
2018-05-14T08:06:43.199Z,84.90
2018-05-14T08:07:43.205Z,85.86
2018-05-14T08:08:43.207Z,85.77
2018-05-14T08:09:43.205Z,84.94
2018-05-14T08:10:43.208Z,84.21
2018-05-14T08:11:43.299Z,84.17
2018-05-14T08:12:43.215Z,83.45
2018-05-14T08:13:43.222Z,83.26
2018-05-14T08:14:43.224Z,84.36
2018-05-14T08:15:43.225Z,82.82
2018-05-14T08:16:43.227Z,83.16
2018-05-14T08:17:43.237Z,83.07
2018-05-14T08:18:43.241Z,84.03
2018-05-14T08:19:43.242Z,84.17
2018-05-14T08:20:43.246Z,83.23
2018-05-14T08:21:43.245Z,79.58
2018-05-14T08:22:43.251Z,76.51
2018-05-14T08:23:43.251Z,72.80
2018-05-14T08:24:43.255Z,70.51
2018-05-14T08:25:43.266Z,68.66
2018-05-14T08:26:43.269Z,67.80
2018-05-14T08:27:43.274Z,67.31
2018-05-14T08:28:43.280Z,64.49
2018-05-14T08:29:43.283Z,63.29
2018-05-14T08:30:43.288Z,64.26
2018-05-14T08:31:43.299Z,65.47
2018-05-14T08:32:43.318Z,65.43
2018-05-14T08:33:43.309Z,65.75
2018-05-14T08:34:43.318Z,65.17
2018-05-14T08:35:43.329Z,63.84
2018-05-14T08:36:43.334Z,63.42
2018-05-14T08:37:43.348Z,64.62
2018-05-14T08:38:43.356Z,64.75
2018-05-14T08:39:43.365Z,66.27
2018-05-14T08:40:43.374Z,66.76
2018-05-14T08:41:43.377Z,64.75
2018-05-14T08:42:43.388Z,63.81
2018-05-14T08:43:43.398Z,62.48
2018-05-14T08:44:43.407Z,61.22
2018-05-14T08:45:43.416Z,62.42
2018-05-14T08:46:43.427Z,63.53
2018-05-14T08:47:43.430Z,64.69
2018-05-14T08:48:43.440Z,65.59
2018-05-14T08:49:43.453Z,67.24
2018-05-14T08:50:43.462Z,67.72
2018-05-14T08:51:43.472Z,67.95
2018-05-14T08:52:43.480Z,67.60
2018-05-14T08:53:43.485Z,67.60
2018-05-14T08:54:43.579Z,65.72
2018-05-14T08:55:43.501Z,65.11
2018-05-14T08:56:43.511Z,63.75
2018-05-14T08:57:43.587Z,62.19
2018-05-14T08:58:43.531Z,62.03
2018-05-14T08:59:43.541Z,61.97
2018-05-14T09:00:43.565Z,62.42
2018-05-14T09:01:43.551Z,63.10
2018-05-14T09:02:43.560Z,61.60
2018-05-14T09:03:43.572Z,59.06
2018-05-14T09:04:43.583Z,57.17
2018-05-14T09:05:43.587Z,56.37
2018-05-14T09:06:43.594Z,53.59
2018-05-14T09:07:43.606Z,52.86
2018-05-14T09:08:43.634Z,52.78
2018-05-14T09:09:43.631Z,53.17
2018-05-14T09:10:43.640Z,55.01
2018-05-14T09:11:43.652Z,55.96
2018-05-14T09:12:43.662Z,57.71
2018-05-14T09:13:43.669Z,58.39
2018-05-14T09:14:43.680Z,58.46
2018-05-14T09:15:43.691Z,58.42
2018-05-14T09:16:43.706Z,58.29
2018-05-14T09:17:43.719Z,58.56
2018-05-14T09:18:43.732Z,58.64
2018-05-14T09:19:43.796Z,56.48
2018-05-14T09:20:43.750Z,54.91
2018-05-14T09:21:43.769Z,52.93
2018-05-14T09:22:43.782Z,51.25
2018-05-14T09:23:43.792Z,49.36
2018-05-14T09:24:43.804Z,46.68
2018-05-14T09:25:43.813Z,45.75
2018-05-14T09:26:43.825Z,46.75
2018-05-14T09:27:43.838Z,45.97
2018-05-14T09:28:43.853Z,45.52
2018-05-14T09:29:43.873Z,45.64
2018-05-14T09:30:43.886Z,44.34
2018-05-14T09:31:43.902Z,43.18
2018-05-14T09:32:43.917Z,43.08
2018-05-14T09:33:43.928Z,42.61
2018-05-14T09:34:43.943Z,43.00
2018-05-14T09:35:43.963Z,43.90
2018-05-14T09:36:44.027Z,44.45
2018-05-14T09:37:43.991Z,44.18
2018-05-14T09:38:44.007Z,43.85
2018-05-14T09:39:44.024Z,42.91
2018-05-14T09:40:44.040Z,42.85
2018-05-14T09:41:44.064Z,40.37
2018-05-14T09:42:44.078Z,40.51
2018-05-14T09:43:44.094Z,41.11
2018-05-14T09:44:44.114Z,41.85
2018-05-14T09:45:44.125Z,41.77
2018-05-14T09:46:44.141Z,41.24
2018-05-14T09:47:44.158Z,41.33
2018-05-14T09:48:44.176Z,40.86
2018-05-14T09:49:44.199Z,40.88
2018-05-14T09:50:44.218Z,39.60
2018-05-14T09:51:44.227Z,40.37
2018-05-14T09:52:44.245Z,39.58
2018-05-14T09:53:44.267Z,40.08
2018-05-14T09:54:44.284Z,40.39
2018-05-14T09:55:44.304Z,40.31
2018-05-14T09:56:44.320Z,41.53
2018-05-14T09:57:44.334Z,42.49
2018-05-14T09:58:44.350Z,43.41
2018-05-14T09:59:44.369Z,43.14
2018-05-14T10:00:44.386Z,42.32
2018-05-14T10:01:44.410Z,40.66
2018-05-14T10:02:44.426Z,40.61
2018-05-14T10:03:44.445Z,39.37
2018-05-14T10:04:44.674Z,40.43
2018-05-14T10:05:44.475Z,42.51
2018-05-14T10:06:44.492Z,42.72
2018-05-14T10:07:44.516Z,42.21
2018-05-14T10:08:44.532Z,42.49
2018-05-14T10:09:44.545Z,43.33
2018-05-14T10:10:44.566Z,43.71
2018-05-14T10:11:44.579Z,45.72
2018-05-14T10:12:44.597Z,46.67
2018-05-14T10:13:44.618Z,47.38
2018-05-14T10:14:44.634Z,47.06
2018-05-14T10:15:44.651Z,45.55
2018-05-14T10:16:44.677Z,44.05
2018-05-14T10:17:44.681Z,43.24
2018-05-14T10:18:44.799Z,42.96
2018-05-14T10:19:44.713Z,44.07
2018-05-14T10:20:44.736Z,44.76
2018-05-14T10:21:44.753Z,45.25
2018-05-14T10:22:44.768Z,45.13
2018-05-14T10:23:44.781Z,46.57
2018-05-14T10:24:44.900Z,46.62
2018-05-14T10:25:44.819Z,46.69
2018-05-14T10:26:44.835Z,46.86
2018-05-14T10:27:44.850Z,47.67
2018-05-14T10:28:44.866Z,47.81
2018-05-14T10:29:44.883Z,47.35
2018-05-14T10:30:44.894Z,46.83
2018-05-14T10:31:44.910Z,45.30
2018-05-14T10:32:44.931Z,44.04
2018-05-14T10:33:44.948Z,43.94
2018-05-14T10:34:44.962Z,44.13
2018-05-14T10:35:44.980Z,44.13
2018-05-14T10:36:44.996Z,43.66
2018-05-14T10:37:45.012Z,44.43
2018-05-14T10:38:45.027Z,44.12
2018-05-14T10:39:45.044Z,44.07
2018-05-14T10:40:45.150Z,45.05
2018-05-14T10:41:45.071Z,46.57
2018-05-14T10:42:45.088Z,47.63
2018-05-14T10:43:45.105Z,47.85
2018-05-14T10:44:45.118Z,48.43
2018-05-14T10:45:45.138Z,48.28
2018-05-14T10:46:45.187Z,47.06
2018-05-14T10:47:45.169Z,47.24
2018-05-14T10:48:45.185Z,48.33
2018-05-14T10:49:45.196Z,48.46
2018-05-14T10:50:45.210Z,47.26
2018-05-14T10:51:45.227Z,47.45
2018-05-14T10:52:45.321Z,48.07
2018-05-14T10:53:45.264Z,47.60
2018-05-14T10:54:45.279Z,47.43
2018-05-14T10:55:45.289Z,47.26
2018-05-14T10:56:45.304Z,47.95
2018-05-14T10:57:45.325Z,49.63
2018-05-14T10:58:45.389Z,49.29
2018-05-14T10:59:45.353Z,49.71
2018-05-14T11:00:45.370Z,49.22
2018-05-14T11:01:45.379Z,50.82
2018-05-14T11:02:45.394Z,51.80
2018-05-14T11:03:45.409Z,52.25
2018-05-14T11:04:45.425Z,51.88
2018-05-14T11:05:45.447Z,51.00
2018-05-14T11:06:45.462Z,50.12
2018-05-14T11:07:45.475Z,50.12
2018-05-14T11:08:45.491Z,50.73
2018-05-14T11:09:45.503Z,50.24
2018-05-14T11:10:45.515Z,50.29
2018-05-14T11:11:45.536Z,48.92
2018-05-14T11:12:45.549Z,48.75
2018-05-14T11:13:45.559Z,49.02
2018-05-14T11:14:45.601Z,50.29
2018-05-14T11:15:45.585Z,50.63
2018-05-14T11:16:45.606Z,51.07
2018-05-14T11:17:45.625Z,51.73
2018-05-14T11:18:45.748Z,52.63
2018-05-14T11:19:45.655Z,52.65
2018-05-14T11:20:45.660Z,54.11
2018-05-14T11:21:45.670Z,54.11
2018-05-14T11:22:45.686Z,55.15
2018-05-14T11:23:45.765Z,55.80
2018-05-14T11:24:45.709Z,55.88
2018-05-14T11:25:45.723Z,57.43
2018-05-14T11:26:45.737Z,58.31
2018-05-14T11:27:45.797Z,59.38
2018-05-14T11:28:45.752Z,59.15
2018-05-14T11:29:45.767Z,59.51
2018-05-14T11:30:45.777Z,60.38
2018-05-14T11:31:45.787Z,60.16
2018-05-14T11:32:45.797Z,61.13
2018-05-14T11:33:45.801Z,61.55
2018-05-14T11:34:45.810Z,60.38
2018-05-14T11:35:45.819Z,60.77
2018-05-14T11:36:45.834Z,61.87
2018-05-14T11:37:45.840Z,61.45
2018-05-14T11:38:45.848Z,61.84
2018-05-14T11:39:45.854Z,61.25
2018-05-14T11:40:45.863Z,61.52
2018-05-14T11:41:45.865Z,62.19
2018-05-14T11:42:45.872Z,62.39
2018-05-14T11:43:45.889Z,61.94
2018-05-14T11:44:45.891Z,60.87
2018-05-14T11:45:45.895Z,60.28
2018-05-14T11:46:45.905Z,60.58
2018-05-14T11:47:45.913Z,60.77
2018-05-14T11:48:45.913Z,60.77
2018-05-14T11:49:45.925Z,61.16
2018-05-14T11:50:46.012Z,60.77
2018-05-14T11:51:45.938Z,61.52
2018-05-14T11:52:45.948Z,62.59
2018-05-14T11:53:45.945Z,61.78
2018-05-14T11:54:45.952Z,61.58
2018-05-14T11:55:45.957Z,62.29
2018-05-14T11:56:46.000Z,61.32
2018-05-14T11:57:45.974Z,60.45
2018-05-14T11:58:45.978Z,60.71
2018-05-14T11:59:45.979Z,59.74
2018-05-14T12:00:45.986Z,60.03
2018-05-14T12:01:45.996Z,60.42
2018-05-14T12:02:46.046Z,61.58
2018-05-14T12:03:46.008Z,61.49
2018-05-14T12:04:46.013Z,60.94
2018-05-14T12:05:46.013Z,60.32
2018-05-14T12:06:46.018Z,59.94
2018-05-14T12:07:46.026Z,60.25
2018-05-14T12:08:46.028Z,59.87
2018-05-14T12:09:46.038Z,59.09
2018-05-14T12:10:46.062Z,59.19
2018-05-14T12:11:46.052Z,59.55
2018-05-14T12:12:46.054Z,60.23
2018-05-14T12:13:46.054Z,60.03
2018-05-14T12:14:46.058Z,59.64
2018-05-14T12:15:46.069Z,59.64
2018-05-14T12:16:46.075Z,59.74
2018-05-14T12:17:46.073Z,60.03
2018-05-14T12:18:46.080Z,60.03
2018-05-14T12:19:46.083Z,59.94
2018-05-14T12:20:46.087Z,60.32
2018-05-14T12:21:46.097Z,60.13
2018-05-14T12:22:46.100Z,60.91
2018-05-14T12:23:46.105Z,60.32
2018-05-14T12:24:46.109Z,60.32
2018-05-14T12:25:46.143Z,60.03
2018-05-14T12:26:46.114Z,60.03
2018-05-14T12:27:46.119Z,59.84
2018-05-14T12:28:46.123Z,60.13
2018-05-14T12:29:46.137Z,60.23
2018-05-14T12:30:46.138Z,60.61
2018-05-14T12:31:46.137Z,61.19
2018-05-14T12:32:46.141Z,61.29
2018-05-14T12:33:46.150Z,60.35
2018-05-14T12:34:46.159Z,60.16
2018-05-14T12:35:46.159Z,61.13
2018-05-14T12:36:46.164Z,59.77
2018-05-14T12:37:46.168Z,59.87
2018-05-14T12:38:46.171Z,59.90
2018-05-14T12:39:46.172Z,59.61
2018-05-14T12:40:46.177Z,59.87
2018-05-14T12:41:46.187Z,60.06
2018-05-14T12:42:46.195Z,59.84
2018-05-14T12:43:46.195Z,60.32
2018-05-14T12:44:46.199Z,60.81
2018-05-14T12:45:46.199Z,60.81
2018-05-14T12:46:46.204Z,60.32
2018-05-14T12:47:46.216Z,60.13
2018-05-14T12:48:46.216Z,60.13
2018-05-14T12:49:46.217Z,60.03
2018-05-14T12:50:46.220Z,59.84
2018-05-14T12:51:46.225Z,59.87
2018-05-14T12:52:46.229Z,59.77